sensor_id;sensor_type;location;lat;lon;timestamp;P1;durP1;ratioP1;P2;durP2;ratioP2
3601;SDS011;1815;50.950;6.920;2023-07-20T00:01:17;2.90;;;1.30;;
3601;SDS011;1815;50.950;6.920;2023-07-20T00:03:43;3.33;;;1.67;;
3601;SDS011;1815;50.950;6.920;2023-07-20T00:06:09;4.13;;;1.93;;
3601;SDS011;1815;50.950;6.920;2023-07-20T00:08:35;4.50;;;1.50;;
3601;SDS011;1815;50.950;6.920;2023-07-20T00:11:01;3.10;;;1.70;;
3601;SDS011;1815;50.950;6.920;2023-07-20T00:13:27;3.50;;;1.27;;
3601;SDS011;1815;50.950;6.920;2023-07-20T00:15:53;3.87;;;1.43;;
3601;SDS011;1815;50.950;6.920;2023-07-20T00:18:18;3.63;;;1.10;;
3601;SDS011;1815;50.950;6.920;2023-07-20T00:20:46;4.13;;;1.50;;
3601;SDS011;1815;50.950;6.920;2023-07-20T00:23:12;4.07;;;1.30;;
3601;SDS011;1815;50.950;6.920;2023-07-20T00:25:38;7.50;;;1.63;;
3601;SDS011;1815;50.950;6.920;2023-07-20T00:28:04;3.70;;;1.50;;
3601;SDS011;1815;50.950;6.920;2023-07-20T00:30:29;3.60;;;1.57;;
3601;SDS011;1815;50.950;6.920;2023-07-20T00:32:55;2.43;;;1.20;;
3601;SDS011;1815;50.950;6.920;2023-07-20T00:35:22;2.10;;;1.20;;
3601;SDS011;1815;50.950;6.920;2023-07-20T00:37:47;3.97;;;1.60;;
3601;SDS011;1815;50.950;6.920;2023-07-20T00:40:13;7.90;;;1.23;;
3601;SDS011;1815;50.950;6.920;2023-07-20T00:42:39;2.17;;;1.43;;
3601;SDS011;1815;50.950;6.920;2023-07-20T00:45:05;3.17;;;1.13;;
3601;SDS011;1815;50.950;6.920;2023-07-20T00:47:31;2.90;;;1.33;;
3601;SDS011;1815;50.950;6.920;2023-07-20T00:49:58;2.70;;;1.30;;
3601;SDS011;1815;50.950;6.920;2023-07-20T00:52:24;3.93;;;1.40;;
3601;SDS011;1815;50.950;6.920;2023-07-20T00:54:50;2.57;;;1.27;;
3601;SDS011;1815;50.950;6.920;2023-07-20T00:57:17;2.60;;;1.30;;
3601;SDS011;1815;50.950;6.920;2023-07-20T00:59:44;2.30;;;1.10;;
3601;SDS011;1815;50.950;6.920;2023-07-20T01:02:10;4.37;;;1.77;;
3601;SDS011;1815;50.950;6.920;2023-07-20T01:04:36;4.43;;;1.27;;
3601;SDS011;1815;50.950;6.920;2023-07-20T01:07:17;3.30;;;1.67;;
3601;SDS011;1815;50.950;6.920;2023-07-20T01:10:03;4.43;;;1.77;;
3601;SDS011;1815;50.950;6.920;2023-07-20T01:12:43;4.30;;;1.30;;
3601;SDS011;1815;50.950;6.920;2023-07-20T01:15:12;3.30;;;1.10;;
3601;SDS011;1815;50.950;6.920;2023-07-20T01:17:38;4.00;;;1.40;;
3601;SDS011;1815;50.950;6.920;2023-07-20T01:20:08;2.57;;;1.40;;
3601;SDS011;1815;50.950;6.920;2023-07-20T01:33:45;4.17;;;1.70;;
3601;SDS011;1815;50.950;6.920;2023-07-20T01:36:12;2.50;;;1.30;;
3601;SDS011;1815;50.950;6.920;2023-07-20T01:38:40;3.30;;;1.40;;
3601;SDS011;1815;50.950;6.920;2023-07-20T01:41:07;2.90;;;1.30;;
3601;SDS011;1815;50.950;6.920;2023-07-20T01:43:33;2.13;;;1.20;;
3601;SDS011;1815;50.950;6.920;2023-07-20T01:45:59;2.70;;;1.20;;
3601;SDS011;1815;50.950;6.920;2023-07-20T01:48:26;3.90;;;1.00;;
3601;SDS011;1815;50.950;6.920;2023-07-20T01:50:52;3.60;;;1.10;;
3601;SDS011;1815;50.950;6.920;2023-07-20T01:53:17;2.53;;;1.13;;
3601;SDS011;1815;50.950;6.920;2023-07-20T01:55:43;4.73;;;1.33;;
3601;SDS011;1815;50.950;6.920;2023-07-20T01:58:09;1.90;;;1.27;;
3601;SDS011;1815;50.950;6.920;2023-07-20T02:00:36;2.27;;;1.13;;
3601;SDS011;1815;50.950;6.920;2023-07-20T02:03:03;2.43;;;1.60;;
3601;SDS011;1815;50.950;6.920;2023-07-20T02:05:29;3.10;;;1.20;;
3601;SDS011;1815;50.950;6.920;2023-07-20T02:07:55;1.83;;;1.00;;
3601;SDS011;1815;50.950;6.920;2023-07-20T02:10:21;2.30;;;1.20;;
3601;SDS011;1815;50.950;6.920;2023-07-20T02:12:47;2.63;;;1.70;;
3601;SDS011;1815;50.950;6.920;2023-07-20T02:15:13;2.50;;;1.70;;
3601;SDS011;1815;50.950;6.920;2023-07-20T02:17:41;2.63;;;1.30;;
3601;SDS011;1815;50.950;6.920;2023-07-20T02:20:08;2.30;;;1.17;;
3601;SDS011;1815;50.950;6.920;2023-07-20T02:22:35;2.37;;;1.17;;
3601;SDS011;1815;50.950;6.920;2023-07-20T02:25:03;3.27;;;1.70;;
3601;SDS011;1815;50.950;6.920;2023-07-20T02:27:30;3.23;;;1.27;;
3601;SDS011;1815;50.950;6.920;2023-07-20T02:29:56;2.40;;;1.40;;
3601;SDS011;1815;50.950;6.920;2023-07-20T02:32:22;2.80;;;1.60;;
3601;SDS011;1815;50.950;6.920;2023-07-20T02:34:48;2.73;;;1.40;;
3601;SDS011;1815;50.950;6.920;2023-07-20T02:37:13;4.90;;;1.47;;
3601;SDS011;1815;50.950;6.920;2023-07-20T02:39:39;3.37;;;2.30;;
3601;SDS011;1815;50.950;6.920;2023-07-20T02:42:05;2.60;;;1.47;;
3601;SDS011;1815;50.950;6.920;2023-07-20T02:44:31;3.53;;;1.90;;
3601;SDS011;1815;50.950;6.920;2023-07-20T02:46:57;2.70;;;1.73;;
3601;SDS011;1815;50.950;6.920;2023-07-20T02:49:22;4.00;;;1.63;;
3601;SDS011;1815;50.950;6.920;2023-07-20T02:51:48;2.40;;;1.50;;
3601;SDS011;1815;50.950;6.920;2023-07-20T02:54:14;3.50;;;1.90;;
3601;SDS011;1815;50.950;6.920;2023-07-20T02:56:40;3.17;;;2.00;;
3601;SDS011;1815;50.950;6.920;2023-07-20T02:59:06;5.13;;;1.93;;
3601;SDS011;1815;50.950;6.920;2023-07-20T03:01:31;2.80;;;1.80;;
3601;SDS011;1815;50.950;6.920;2023-07-20T03:03:57;3.20;;;1.60;;
3601;SDS011;1815;50.950;6.920;2023-07-20T03:06:23;2.67;;;1.63;;
3601;SDS011;1815;50.950;6.920;2023-07-20T03:08:49;2.97;;;1.30;;
3601;SDS011;1815;50.950;6.920;2023-07-20T03:11:17;4.53;;;1.60;;
3601;SDS011;1815;50.950;6.920;2023-07-20T03:13:44;3.50;;;1.63;;
3601;SDS011;1815;50.950;6.920;2023-07-20T03:16:10;3.63;;;1.60;;
3601;SDS011;1815;50.950;6.920;2023-07-20T03:18:41;6.20;;;1.43;;
3601;SDS011;1815;50.950;6.920;2023-07-20T03:21:07;2.80;;;1.60;;
3601;SDS011;1815;50.950;6.920;2023-07-20T03:23:36;3.00;;;1.60;;
3601;SDS011;1815;50.950;6.920;2023-07-20T03:26:03;4.30;;;1.87;;
3601;SDS011;1815;50.950;6.920;2023-07-20T03:28:30;4.70;;;1.97;;
3601;SDS011;1815;50.950;6.920;2023-07-20T03:30:56;3.13;;;1.50;;
3601;SDS011;1815;50.950;6.920;2023-07-20T03:33:27;4.10;;;1.73;;
3601;SDS011;1815;50.950;6.920;2023-07-20T03:35:55;8.00;;;2.13;;
3601;SDS011;1815;50.950;6.920;2023-07-20T03:38:22;3.63;;;1.30;;
3601;SDS011;1815;50.950;6.920;2023-07-20T03:40:49;6.60;;;1.60;;
3601;SDS011;1815;50.950;6.920;2023-07-20T03:43:25;4.53;;;2.23;;
3601;SDS011;1815;50.950;6.920;2023-07-20T03:45:51;2.00;;;1.20;;
3601;SDS011;1815;50.950;6.920;2023-07-20T03:48:18;3.43;;;1.83;;
3601;SDS011;1815;50.950;6.920;2023-07-20T03:50:46;3.40;;;1.43;;
3601;SDS011;1815;50.950;6.920;2023-07-20T03:53:14;3.83;;;1.70;;
3601;SDS011;1815;50.950;6.920;2023-07-20T03:58:16;3.47;;;1.43;;
3601;SDS011;1815;50.950;6.920;2023-07-20T04:00:46;2.17;;;1.20;;
3601;SDS011;1815;50.950;6.920;2023-07-20T04:03:13;3.30;;;1.93;;
3601;SDS011;1815;50.950;6.920;2023-07-20T04:05:39;3.23;;;1.50;;
3601;SDS011;1815;50.950;6.920;2023-07-20T04:08:05;2.77;;;1.57;;
3601;SDS011;1815;50.950;6.920;2023-07-20T04:10:31;4.33;;;1.40;;
3601;SDS011;1815;50.950;6.920;2023-07-20T04:12:57;3.70;;;1.27;;
3601;SDS011;1815;50.950;6.920;2023-07-20T04:15:22;3.50;;;1.30;;
3601;SDS011;1815;50.950;6.920;2023-07-20T04:17:48;2.97;;;1.50;;
3601;SDS011;1815;50.950;6.920;2023-07-20T04:20:14;2.90;;;1.70;;
3601;SDS011;1815;50.950;6.920;2023-07-20T04:22:40;4.27;;;1.50;;
3601;SDS011;1815;50.950;6.920;2023-07-20T04:25:09;3.27;;;1.20;;
3601;SDS011;1815;50.950;6.920;2023-07-20T04:27:35;4.33;;;1.90;;
3601;SDS011;1815;50.950;6.920;2023-07-20T04:30:02;2.23;;;1.20;;
3601;SDS011;1815;50.950;6.920;2023-07-20T04:32:29;2.20;;;1.40;;
3601;SDS011;1815;50.950;6.920;2023-07-20T04:34:56;3.00;;;1.30;;
3601;SDS011;1815;50.950;6.920;2023-07-20T04:37:21;4.03;;;1.47;;
3601;SDS011;1815;50.950;6.920;2023-07-20T04:39:47;4.83;;;1.43;;
3601;SDS011;1815;50.950;6.920;2023-07-20T04:42:14;3.00;;;1.40;;
3601;SDS011;1815;50.950;6.920;2023-07-20T04:44:40;3.90;;;1.30;;
3601;SDS011;1815;50.950;6.920;2023-07-20T04:47:08;6.07;;;1.60;;
3601;SDS011;1815;50.950;6.920;2023-07-20T04:49:37;2.00;;;1.27;;
3601;SDS011;1815;50.950;6.920;2023-07-20T04:52:02;2.73;;;1.30;;
3601;SDS011;1815;50.950;6.920;2023-07-20T04:54:29;2.50;;;1.67;;
3601;SDS011;1815;50.950;6.920;2023-07-20T04:56:55;5.40;;;2.00;;
3601;SDS011;1815;50.950;6.920;2023-07-20T04:59:21;3.40;;;1.40;;
3601;SDS011;1815;50.950;6.920;2023-07-20T05:01:47;4.07;;;1.60;;
3601;SDS011;1815;50.950;6.920;2023-07-20T05:04:14;2.50;;;2.10;;
3601;SDS011;1815;50.950;6.920;2023-07-20T05:06:40;4.10;;;1.93;;
3601;SDS011;1815;50.950;6.920;2023-07-20T05:09:06;2.90;;;1.60;;
3601;SDS011;1815;50.950;6.920;2023-07-20T05:11:34;5.10;;;2.30;;
3601;SDS011;1815;50.950;6.920;2023-07-20T05:14:00;5.03;;;2.10;;
3601;SDS011;1815;50.950;6.920;2023-07-20T05:16:27;9.77;;;3.70;;
3601;SDS011;1815;50.950;6.920;2023-07-20T05:18:55;4.10;;;2.23;;
3601;SDS011;1815;50.950;6.920;2023-07-20T05:21:22;6.30;;;2.20;;
3601;SDS011;1815;50.950;6.920;2023-07-20T05:23:48;4.63;;;2.13;;
3601;SDS011;1815;50.950;6.920;2023-07-20T05:26:14;6.73;;;2.47;;
3601;SDS011;1815;50.950;6.920;2023-07-20T05:28:40;4.67;;;2.50;;
3601;SDS011;1815;50.950;6.920;2023-07-20T05:31:06;8.13;;;2.33;;
3601;SDS011;1815;50.950;6.920;2023-07-20T05:33:31;6.67;;;2.30;;
3601;SDS011;1815;50.950;6.920;2023-07-20T05:35:57;4.67;;;2.17;;
3601;SDS011;1815;50.950;6.920;2023-07-20T05:38:23;4.77;;;2.70;;
3601;SDS011;1815;50.950;6.920;2023-07-20T05:40:48;5.87;;;2.47;;
3601;SDS011;1815;50.950;6.920;2023-07-20T05:43:14;4.10;;;3.00;;
3601;SDS011;1815;50.950;6.920;2023-07-20T05:45:43;6.83;;;3.17;;
3601;SDS011;1815;50.950;6.920;2023-07-20T05:48:10;4.60;;;3.03;;
3601;SDS011;1815;50.950;6.920;2023-07-20T05:50:37;5.63;;;2.90;;
3601;SDS011;1815;50.950;6.920;2023-07-20T05:53:03;5.80;;;3.27;;
3601;SDS011;1815;50.950;6.920;2023-07-20T05:55:29;5.87;;;3.20;;
3601;SDS011;1815;50.950;6.920;2023-07-20T05:57:54;4.73;;;2.57;;
3601;SDS011;1815;50.950;6.920;2023-07-20T06:00:21;5.67;;;3.30;;
3601;SDS011;1815;50.950;6.920;2023-07-20T06:02:52;6.57;;;3.60;;
3601;SDS011;1815;50.950;6.920;2023-07-20T06:05:18;5.50;;;3.93;;
3601;SDS011;1815;50.950;6.920;2023-07-20T06:07:45;7.30;;;4.00;;
3601;SDS011;1815;50.950;6.920;2023-07-20T06:10:11;7.73;;;3.17;;
3601;SDS011;1815;50.950;6.920;2023-07-20T06:12:36;4.13;;;2.47;;
3601;SDS011;1815;50.950;6.920;2023-07-20T06:15:02;7.30;;;3.60;;
3601;SDS011;1815;50.950;6.920;2023-07-20T06:17:29;15.80;;;4.80;;
3601;SDS011;1815;50.950;6.920;2023-07-20T06:19:55;7.57;;;4.37;;
3601;SDS011;1815;50.950;6.920;2023-07-20T06:22:21;7.30;;;3.27;;
3601;SDS011;1815;50.950;6.920;2023-07-20T06:24:46;5.77;;;4.40;;
3601;SDS011;1815;50.950;6.920;2023-07-20T06:27:12;7.43;;;3.77;;
3601;SDS011;1815;50.950;6.920;2023-07-20T06:29:38;3.40;;;2.37;;
3601;SDS011;1815;50.950;6.920;2023-07-20T06:32:04;7.07;;;4.10;;
3601;SDS011;1815;50.950;6.920;2023-07-20T06:34:30;6.00;;;4.30;;
3601;SDS011;1815;50.950;6.920;2023-07-20T06:36:56;5.77;;;4.40;;
3601;SDS011;1815;50.950;6.920;2023-07-20T06:39:21;6.07;;;4.50;;
3601;SDS011;1815;50.950;6.920;2023-07-20T06:41:47;4.50;;;3.80;;
3601;SDS011;1815;50.950;6.920;2023-07-20T06:44:13;10.17;;;4.77;;
3601;SDS011;1815;50.950;6.920;2023-07-20T06:46:39;4.77;;;3.53;;
3601;SDS011;1815;50.950;6.920;2023-07-20T06:49:07;4.87;;;3.50;;
3601;SDS011;1815;50.950;6.920;2023-07-20T06:51:33;5.43;;;3.23;;
3601;SDS011;1815;50.950;6.920;2023-07-20T06:53:59;7.17;;;3.97;;
3601;SDS011;1815;50.950;6.920;2023-07-20T06:56:24;4.03;;;3.40;;
3601;SDS011;1815;50.950;6.920;2023-07-20T06:58:50;6.50;;;3.93;;
3601;SDS011;1815;50.950;6.920;2023-07-20T07:01:15;3.97;;;2.60;;
3601;SDS011;1815;50.950;6.920;2023-07-20T07:03:42;4.33;;;2.83;;
3601;SDS011;1815;50.950;6.920;2023-07-20T07:06:09;5.63;;;3.30;;
3601;SDS011;1815;50.950;6.920;2023-07-20T07:08:35;4.73;;;3.00;;
3601;SDS011;1815;50.950;6.920;2023-07-20T07:11:01;8.90;;;3.60;;
3601;SDS011;1815;50.950;6.920;2023-07-20T07:13:26;2.90;;;2.50;;
3601;SDS011;1815;50.950;6.920;2023-07-20T07:15:52;3.13;;;2.83;;
3601;SDS011;1815;50.950;6.920;2023-07-20T07:18:18;6.27;;;3.07;;
3601;SDS011;1815;50.950;6.920;2023-07-20T07:20:51;3.70;;;3.03;;
3601;SDS011;1815;50.950;6.920;2023-07-20T07:23:18;5.00;;;3.00;;
3601;SDS011;1815;50.950;6.920;2023-07-20T07:25:43;4.33;;;2.80;;
3601;SDS011;1815;50.950;6.920;2023-07-20T07:28:09;4.73;;;3.17;;
3601;SDS011;1815;50.950;6.920;2023-07-20T07:30:35;5.40;;;3.30;;
3601;SDS011;1815;50.950;6.920;2023-07-20T07:33:01;5.33;;;3.03;;
3601;SDS011;1815;50.950;6.920;2023-07-20T07:35:27;8.07;;;3.97;;
3601;SDS011;1815;50.950;6.920;2023-07-20T07:37:52;3.23;;;2.63;;
3601;SDS011;1815;50.950;6.920;2023-07-20T07:40:18;5.70;;;3.50;;
3601;SDS011;1815;50.950;6.920;2023-07-20T07:42:44;4.30;;;2.37;;
3601;SDS011;1815;50.950;6.920;2023-07-20T07:45:09;5.20;;;2.90;;
3601;SDS011;1815;50.950;6.920;2023-07-20T07:47:35;3.50;;;2.33;;
3601;SDS011;1815;50.950;6.920;2023-07-20T07:50:01;6.70;;;2.37;;
3601;SDS011;1815;50.950;6.920;2023-07-20T07:52:27;4.67;;;2.77;;
3601;SDS011;1815;50.950;6.920;2023-07-20T07:54:53;3.07;;;1.77;;
3601;SDS011;1815;50.950;6.920;2023-07-20T07:57:19;2.90;;;2.10;;
3601;SDS011;1815;50.950;6.920;2023-07-20T07:59:45;3.67;;;2.50;;
3601;SDS011;1815;50.950;6.920;2023-07-20T08:02:11;3.00;;;1.70;;
3601;SDS011;1815;50.950;6.920;2023-07-20T08:04:36;2.10;;;1.53;;
3601;SDS011;1815;50.950;6.920;2023-07-20T08:07:03;4.13;;;2.17;;
3601;SDS011;1815;50.950;6.920;2023-07-20T08:09:29;3.77;;;1.80;;
3601;SDS011;1815;50.950;6.920;2023-07-20T08:11:55;2.03;;;1.50;;
3601;SDS011;1815;50.950;6.920;2023-07-20T08:14:20;2.87;;;1.83;;
3601;SDS011;1815;50.950;6.920;2023-07-20T08:16:46;5.07;;;1.50;;
3601;SDS011;1815;50.950;6.920;2023-07-20T08:19:12;2.10;;;1.40;;
3601;SDS011;1815;50.950;6.920;2023-07-20T08:21:38;2.30;;;1.37;;
3601;SDS011;1815;50.950;6.920;2023-07-20T08:24:04;15.23;;;1.77;;
3601;SDS011;1815;50.950;6.920;2023-07-20T08:26:29;3.30;;;1.60;;
3601;SDS011;1815;50.950;6.920;2023-07-20T08:28:55;3.77;;;1.03;;
3601;SDS011;1815;50.950;6.920;2023-07-20T08:31:21;3.40;;;0.90;;
3601;SDS011;1815;50.950;6.920;2023-07-20T08:33:47;2.60;;;1.13;;
3601;SDS011;1815;50.950;6.920;2023-07-20T08:36:13;1.90;;;0.87;;
3601;SDS011;1815;50.950;6.920;2023-07-20T08:38:39;1.77;;;0.90;;
3601;SDS011;1815;50.950;6.920;2023-07-20T08:41:05;2.03;;;1.20;;
3601;SDS011;1815;50.950;6.920;2023-07-20T08:43:30;2.17;;;1.10;;
3601;SDS011;1815;50.950;6.920;2023-07-20T08:45:58;2.63;;;0.90;;
3601;SDS011;1815;50.950;6.920;2023-07-20T08:48:24;1.63;;;0.70;;
3601;SDS011;1815;50.950;6.920;2023-07-20T08:50:52;2.87;;;0.90;;
3601;SDS011;1815;50.950;6.920;2023-07-20T08:53:22;2.43;;;0.73;;
3601;SDS011;1815;50.950;6.920;2023-07-20T08:55:50;2.83;;;1.00;;
3601;SDS011;1815;50.950;6.920;2023-07-20T08:58:19;2.27;;;0.80;;
3601;SDS011;1815;50.950;6.920;2023-07-20T09:00:45;2.10;;;0.70;;
3601;SDS011;1815;50.950;6.920;2023-07-20T09:03:15;4.17;;;1.43;;
3601;SDS011;1815;50.950;6.920;2023-07-20T09:05:41;2.33;;;1.17;;
3601;SDS011;1815;50.950;6.920;2023-07-20T09:08:07;1.77;;;0.63;;
3601;SDS011;1815;50.950;6.920;2023-07-20T09:10:33;1.60;;;0.77;;
3601;SDS011;1815;50.950;6.920;2023-07-20T09:12:58;1.80;;;0.70;;
3601;SDS011;1815;50.950;6.920;2023-07-20T09:15:24;4.33;;;0.70;;
3601;SDS011;1815;50.950;6.920;2023-07-20T09:17:51;1.87;;;0.70;;
3601;SDS011;1815;50.950;6.920;2023-07-20T09:20:19;2.00;;;1.07;;
3601;SDS011;1815;50.950;6.920;2023-07-20T09:22:46;1.63;;;0.70;;
3601;SDS011;1815;50.950;6.920;2023-07-20T09:27:40;2.83;;;0.90;;
3601;SDS011;1815;50.950;6.920;2023-07-20T09:30:08;1.90;;;0.80;;
3601;SDS011;1815;50.950;6.920;2023-07-20T09:32:40;3.90;;;1.00;;
3601;SDS011;1815;50.950;6.920;2023-07-20T09:35:18;1.97;;;0.70;;
3601;SDS011;1815;50.950;6.920;2023-07-20T09:38:00;2.33;;;0.80;;
3601;SDS011;1815;50.950;6.920;2023-07-20T09:40:26;2.33;;;0.93;;
3601;SDS011;1815;50.950;6.920;2023-07-20T09:42:53;2.33;;;0.80;;
3601;SDS011;1815;50.950;6.920;2023-07-20T09:45:40;1.93;;;0.90;;
3601;SDS011;1815;50.950;6.920;2023-07-20T09:48:07;3.97;;;1.10;;
3601;SDS011;1815;50.950;6.920;2023-07-20T09:50:48;2.20;;;0.90;;
3601;SDS011;1815;50.950;6.920;2023-07-20T09:53:15;1.70;;;0.80;;
3601;SDS011;1815;50.950;6.920;2023-07-20T09:55:46;2.43;;;0.70;;
3601;SDS011;1815;50.950;6.920;2023-07-20T09:58:13;1.60;;;0.83;;
3601;SDS011;1815;50.950;6.920;2023-07-20T10:00:40;2.13;;;0.70;;
3601;SDS011;1815;50.950;6.920;2023-07-20T10:03:10;1.93;;;0.80;;
3601;SDS011;1815;50.950;6.920;2023-07-20T10:05:39;2.00;;;0.83;;
3601;SDS011;1815;50.950;6.920;2023-07-20T10:08:09;2.03;;;0.93;;
3601;SDS011;1815;50.950;6.920;2023-07-20T10:10:37;1.70;;;0.60;;
3601;SDS011;1815;50.950;6.920;2023-07-20T10:13:06;2.13;;;0.73;;
3601;SDS011;1815;50.950;6.920;2023-07-20T10:16:25;2.03;;;0.90;;
3601;SDS011;1815;50.950;6.920;2023-07-20T10:21:03;1.90;;;0.80;;
3601;SDS011;1815;50.950;6.920;2023-07-20T10:23:33;2.57;;;0.67;;
3601;SDS011;1815;50.950;6.920;2023-07-20T10:25:59;1.53;;;0.70;;
3601;SDS011;1815;50.950;6.920;2023-07-20T10:28:28;2.23;;;0.60;;
3601;SDS011;1815;50.950;6.920;2023-07-20T10:30:54;1.40;;;0.57;;
3601;SDS011;1815;50.950;6.920;2023-07-20T10:33:19;1.50;;;0.60;;
3601;SDS011;1815;50.950;6.920;2023-07-20T10:35:56;1.70;;;0.70;;
3601;SDS011;1815;50.950;6.920;2023-07-20T10:38:42;1.50;;;0.60;;
3601;SDS011;1815;50.950;6.920;2023-07-20T10:41:18;1.60;;;0.60;;
3601;SDS011;1815;50.950;6.920;2023-07-20T10:43:45;1.77;;;0.80;;
3601;SDS011;1815;50.950;6.920;2023-07-20T10:46:12;2.10;;;0.70;;
3601;SDS011;1815;50.950;6.920;2023-07-20T10:51:30;1.80;;;0.57;;
3601;SDS011;1815;50.950;6.920;2023-07-20T10:54:04;1.50;;;0.60;;
3601;SDS011;1815;50.950;6.920;2023-07-20T10:56:42;1.63;;;0.73;;
3601;SDS011;1815;50.950;6.920;2023-07-20T11:01:45;1.30;;;0.50;;
3601;SDS011;1815;50.950;6.920;2023-07-20T11:04:15;1.60;;;0.50;;
3601;SDS011;1815;50.950;6.920;2023-07-20T11:06:54;7.80;;;0.70;;
3601;SDS011;1815;50.950;6.920;2023-07-20T11:09:21;2.50;;;0.50;;
3601;SDS011;1815;50.950;6.920;2023-07-20T11:11:51;1.77;;;0.50;;
3601;SDS011;1815;50.950;6.920;2023-07-20T11:14:35;1.40;;;0.53;;
3601;SDS011;1815;50.950;6.920;2023-07-20T11:17:30;3.43;;;0.90;;
3601;SDS011;1815;50.950;6.920;2023-07-20T11:19:57;1.90;;;0.60;;
3601;SDS011;1815;50.950;6.920;2023-07-20T11:22:26;1.83;;;0.60;;
3601;SDS011;1815;50.950;6.920;2023-07-20T11:24:55;1.40;;;0.60;;
3601;SDS011;1815;50.950;6.920;2023-07-20T11:27:21;1.83;;;0.73;;
3601;SDS011;1815;50.950;6.920;2023-07-20T11:29:47;1.33;;;0.60;;
3601;SDS011;1815;50.950;6.920;2023-07-20T11:32:20;1.70;;;0.60;;
3601;SDS011;1815;50.950;6.920;2023-07-20T11:34:47;1.70;;;0.60;;
3601;SDS011;1815;50.950;6.920;2023-07-20T11:37:13;1.40;;;0.60;;
3601;SDS011;1815;50.950;6.920;2023-07-20T11:39:38;1.40;;;0.60;;
3601;SDS011;1815;50.950;6.920;2023-07-20T11:42:05;1.67;;;0.57;;
3601;SDS011;1815;50.950;6.920;2023-07-20T11:44:31;1.30;;;0.50;;
3601;SDS011;1815;50.950;6.920;2023-07-20T11:47:10;3.50;;;0.60;;
3601;SDS011;1815;50.950;6.920;2023-07-20T11:49:37;1.40;;;0.57;;
3601;SDS011;1815;50.950;6.920;2023-07-20T11:52:10;1.30;;;0.50;;
3601;SDS011;1815;50.950;6.920;2023-07-20T11:54:40;2.07;;;0.53;;
3601;SDS011;1815;50.950;6.920;2023-07-20T11:57:06;1.57;;;0.70;;
3601;SDS011;1815;50.950;6.920;2023-07-20T11:59:32;1.70;;;0.60;;
3601;SDS011;1815;50.950;6.920;2023-07-20T12:02:00;1.53;;;0.70;;
3601;SDS011;1815;50.950;6.920;2023-07-20T12:04:28;2.17;;;0.60;;
3601;SDS011;1815;50.950;6.920;2023-07-20T12:06:54;2.70;;;1.33;;
3601;SDS011;1815;50.950;6.920;2023-07-20T12:09:20;1.40;;;0.60;;
3601;SDS011;1815;50.950;6.920;2023-07-20T12:11:48;2.20;;;0.50;;
3601;SDS011;1815;50.950;6.920;2023-07-20T12:14:14;1.50;;;0.60;;
3601;SDS011;1815;50.950;6.920;2023-07-20T12:16:40;2.63;;;0.60;;
3601;SDS011;1815;50.950;6.920;2023-07-20T12:19:07;1.90;;;0.60;;
3601;SDS011;1815;50.950;6.920;2023-07-20T12:21:34;2.90;;;0.50;;
3601;SDS011;1815;50.950;6.920;2023-07-20T12:24:05;1.83;;;0.53;;
3601;SDS011;1815;50.950;6.920;2023-07-20T12:26:31;1.50;;;0.57;;
3601;SDS011;1815;50.950;6.920;2023-07-20T12:28:58;1.53;;;0.60;;
3601;SDS011;1815;50.950;6.920;2023-07-20T12:31:24;4.80;;;0.67;;
3601;SDS011;1815;50.950;6.920;2023-07-20T12:33:51;1.50;;;0.63;;
3601;SDS011;1815;50.950;6.920;2023-07-20T12:36:18;2.33;;;0.70;;
3601;SDS011;1815;50.950;6.920;2023-07-20T12:38:44;1.93;;;0.60;;
3601;SDS011;1815;50.950;6.920;2023-07-20T12:41:11;1.77;;;0.70;;
3601;SDS011;1815;50.950;6.920;2023-07-20T12:43:41;2.03;;;0.67;;
3601;SDS011;1815;50.950;6.920;2023-07-20T12:46:07;2.60;;;0.60;;
3601;SDS011;1815;50.950;6.920;2023-07-20T12:48:35;1.43;;;0.60;;
3601;SDS011;1815;50.950;6.920;2023-07-20T12:51:02;1.70;;;0.77;;
3601;SDS011;1815;50.950;6.920;2023-07-20T12:53:29;1.80;;;0.60;;
3601;SDS011;1815;50.950;6.920;2023-07-20T12:55:55;2.10;;;0.60;;
3601;SDS011;1815;50.950;6.920;2023-07-20T12:58:21;1.33;;;0.57;;
3601;SDS011;1815;50.950;6.920;2023-07-20T13:00:47;3.13;;;0.73;;
3601;SDS011;1815;50.950;6.920;2023-07-20T13:03:12;2.30;;;0.70;;
3601;SDS011;1815;50.950;6.920;2023-07-20T13:05:38;1.97;;;0.70;;
3601;SDS011;1815;50.950;6.920;2023-07-20T13:08:04;1.70;;;0.60;;
3601;SDS011;1815;50.950;6.920;2023-07-20T13:10:30;1.70;;;0.60;;
3601;SDS011;1815;50.950;6.920;2023-07-20T13:12:56;1.40;;;0.60;;
3601;SDS011;1815;50.950;6.920;2023-07-20T13:15:24;1.60;;;0.53;;
3601;SDS011;1815;50.950;6.920;2023-07-20T13:17:55;1.60;;;0.80;;
3601;SDS011;1815;50.950;6.920;2023-07-20T13:20:21;1.30;;;0.50;;
3601;SDS011;1815;50.950;6.920;2023-07-20T13:22:47;3.53;;;0.70;;
3601;SDS011;1815;50.950;6.920;2023-07-20T13:25:13;1.50;;;0.60;;
3601;SDS011;1815;50.950;6.920;2023-07-20T13:27:39;1.70;;;0.60;;
3601;SDS011;1815;50.950;6.920;2023-07-20T13:30:05;2.77;;;0.70;;
3601;SDS011;1815;50.950;6.920;2023-07-20T13:32:33;2.13;;;0.60;;
3601;SDS011;1815;50.950;6.920;2023-07-20T13:34:59;2.07;;;0.60;;
3601;SDS011;1815;50.950;6.920;2023-07-20T13:37:26;2.20;;;0.70;;
3601;SDS011;1815;50.950;6.920;2023-07-20T13:39:52;1.50;;;0.70;;
3601;SDS011;1815;50.950;6.920;2023-07-20T13:42:18;1.63;;;0.50;;
3601;SDS011;1815;50.950;6.920;2023-07-20T13:44:43;1.60;;;0.60;;
3601;SDS011;1815;50.950;6.920;2023-07-20T13:47:09;1.43;;;0.70;;
3601;SDS011;1815;50.950;6.920;2023-07-20T13:49:35;1.40;;;0.60;;
3601;SDS011;1815;50.950;6.920;2023-07-20T13:52:01;1.40;;;0.53;;
3601;SDS011;1815;50.950;6.920;2023-07-20T13:54:27;1.73;;;0.70;;
3601;SDS011;1815;50.950;6.920;2023-07-20T13:56:53;1.97;;;0.60;;
3601;SDS011;1815;50.950;6.920;2023-07-20T13:59:18;1.40;;;0.60;;
3601;SDS011;1815;50.950;6.920;2023-07-20T14:01:45;2.00;;;0.70;;
3601;SDS011;1815;50.950;6.920;2023-07-20T14:04:11;1.60;;;0.60;;
3601;SDS011;1815;50.950;6.920;2023-07-20T14:06:37;7.40;;;0.90;;
3601;SDS011;1815;50.950;6.920;2023-07-20T14:09:03;2.70;;;0.90;;
3601;SDS011;1815;50.950;6.920;2023-07-20T14:11:29;1.67;;;0.60;;
3601;SDS011;1815;50.950;6.920;2023-07-20T14:13:55;1.90;;;0.93;;
3601;SDS011;1815;50.950;6.920;2023-07-20T14:16:23;1.50;;;0.60;;
3601;SDS011;1815;50.950;6.920;2023-07-20T14:18:49;1.83;;;0.77;;
3601;SDS011;1815;50.950;6.920;2023-07-20T14:21:16;2.77;;;0.70;;
3601;SDS011;1815;50.950;6.920;2023-07-20T14:23:46;1.50;;;0.60;;
3601;SDS011;1815;50.950;6.920;2023-07-20T14:26:17;1.77;;;0.60;;
3601;SDS011;1815;50.950;6.920;2023-07-20T14:28:43;1.70;;;0.60;;
3601;SDS011;1815;50.950;6.920;2023-07-20T14:31:09;2.83;;;0.70;;
3601;SDS011;1815;50.950;6.920;2023-07-20T14:33:34;3.00;;;0.80;;
3601;SDS011;1815;50.950;6.920;2023-07-20T14:36:01;1.67;;;0.80;;
3601;SDS011;1815;50.950;6.920;2023-07-20T14:38:27;1.70;;;1.10;;
3601;SDS011;1815;50.950;6.920;2023-07-20T14:40:54;1.90;;;0.70;;
3601;SDS011;1815;50.950;6.920;2023-07-20T14:43:20;2.67;;;0.70;;
3601;SDS011;1815;50.950;6.920;2023-07-20T14:45:45;2.57;;;0.70;;
3601;SDS011;1815;50.950;6.920;2023-07-20T14:48:12;1.80;;;0.60;;
3601;SDS011;1815;50.950;6.920;2023-07-20T14:50:37;1.63;;;0.80;;
3601;SDS011;1815;50.950;6.920;2023-07-20T14:53:03;1.77;;;0.93;;
3601;SDS011;1815;50.950;6.920;2023-07-20T14:55:29;1.70;;;0.80;;
3601;SDS011;1815;50.950;6.920;2023-07-20T14:57:55;2.37;;;0.70;;
3601;SDS011;1815;50.950;6.920;2023-07-20T15:00:21;4.03;;;0.90;;
3601;SDS011;1815;50.950;6.920;2023-07-20T15:02:46;1.90;;;0.60;;
3601;SDS011;1815;50.950;6.920;2023-07-20T15:05:14;1.90;;;0.63;;
3601;SDS011;1815;50.950;6.920;2023-07-20T15:07:46;1.67;;;0.80;;
3601;SDS011;1815;50.950;6.920;2023-07-20T15:10:12;1.50;;;0.70;;
3601;SDS011;1815;50.950;6.920;2023-07-20T15:12:38;2.53;;;0.60;;
3601;SDS011;1815;50.950;6.920;2023-07-20T15:15:07;1.40;;;0.60;;
3601;SDS011;1815;50.950;6.920;2023-07-20T15:17:39;4.10;;;0.67;;
3601;SDS011;1815;50.950;6.920;2023-07-20T15:20:06;1.63;;;0.67;;
3601;SDS011;1815;50.950;6.920;2023-07-20T15:22:33;2.27;;;0.70;;
3601;SDS011;1815;50.950;6.920;2023-07-20T15:25:01;1.40;;;0.67;;
3601;SDS011;1815;50.950;6.920;2023-07-20T15:27:29;1.80;;;0.60;;
3601;SDS011;1815;50.950;6.920;2023-07-20T15:29:55;1.40;;;0.63;;
3601;SDS011;1815;50.950;6.920;2023-07-20T15:32:20;1.60;;;0.50;;
3601;SDS011;1815;50.950;6.920;2023-07-20T15:34:46;1.87;;;0.60;;
3601;SDS011;1815;50.950;6.920;2023-07-20T15:37:12;1.50;;;0.70;;
3601;SDS011;1815;50.950;6.920;2023-07-20T15:39:38;1.70;;;0.80;;